HU-0032 weather

Mezőhegyes
Csongrád, Hungary

Public forecast

Using degrees Celsius for public forecast. Weather courtesy of forecast.io.

Closest aviation weather report (METAR) to Mezőhegyes

Closest report is Arad International Airport, 20.0 nm (37.0 km) ESE. Retrieved 2019/12/11 02:30 UTC (4 minutes ago):

LRAR 110230Z 01008KT CAVOK 03/M01 Q1019

Closest aviation forecast (TAF) to Mezőhegyes

Forecast is more than 12 hours old.

Closest forecast is Arad International Airport, 20.0 nm (37.0 km) ESE. Retrieved 2012/12/05 09:33 UTC (7 years ago):

TAF TAF LRAR 050800Z 0509/0521 VRB04KT 3000 -SN BR BKN005 OVC010 TEMPO 0509/0513 1500 SN BKN002 OVC005 BECMG 0513/0515 5000 -SN BKN010 OVC025